sensor_id;sensor_type;location;lat;lon;timestamp;P1;durP1;ratioP1;P2;durP2;ratioP2
71174;SDS011;58876;51.994;4.472;2024-03-22T00:01:44;43.46;;;41.62;;
71174;SDS011;58876;51.994;4.472;2024-03-22T00:04:10;43.00;;;41.30;;
71174;SDS011;58876;51.994;4.472;2024-03-22T00:06:36;40.69;;;39.37;;
71174;SDS011;58876;51.994;4.472;2024-03-22T00:09:01;39.19;;;37.87;;
71174;SDS011;58876;51.994;4.472;2024-03-22T00:11:27;37.89;;;36.80;;
71174;SDS011;58876;51.994;4.472;2024-03-22T00:13:52;37.32;;;35.99;;
71174;SDS011;58876;51.994;4.472;2024-03-22T00:16:18;35.91;;;34.60;;
71174;SDS011;58876;51.994;4.472;2024-03-22T00:18:43;36.24;;;34.95;;
71174;SDS011;58876;51.994;4.472;2024-03-22T00:21:08;35.90;;;34.90;;
71174;SDS011;58876;51.994;4.472;2024-03-22T00:23:34;36.51;;;35.61;;
71174;SDS011;58876;51.994;4.472;2024-03-22T00:25:59;37.48;;;36.68;;
71174;SDS011;58876;51.994;4.472;2024-03-22T00:28:25;37.95;;;37.24;;
71174;SDS011;58876;51.994;4.472;2024-03-22T00:30:50;39.92;;;39.00;;
71174;SDS011;58876;51.994;4.472;2024-03-22T00:33:16;38.93;;;38.08;;
71174;SDS011;58876;51.994;4.472;2024-03-22T00:35:41;38.81;;;38.25;;
71174;SDS011;58876;51.994;4.472;2024-03-22T00:38:07;39.67;;;39.04;;
71174;SDS011;58876;51.994;4.472;2024-03-22T00:40:32;40.27;;;39.75;;
71174;SDS011;58876;51.994;4.472;2024-03-22T00:42:58;44.06;;;42.58;;
71174;SDS011;58876;51.994;4.472;2024-03-22T00:45:24;45.31;;;43.97;;
71174;SDS011;58876;51.994;4.472;2024-03-22T00:47:49;45.96;;;44.64;;
71174;SDS011;58876;51.994;4.472;2024-03-22T00:50:14;45.56;;;44.11;;
71174;SDS011;58876;51.994;4.472;2024-03-22T00:52:40;44.50;;;43.14;;
71174;SDS011;58876;51.994;4.472;2024-03-22T00:55:06;46.38;;;44.56;;
71174;SDS011;58876;51.994;4.472;2024-03-22T00:57:32;46.16;;;44.57;;
71174;SDS011;58876;51.994;4.472;2024-03-22T00:59:58;46.72;;;45.10;;
71174;SDS011;58876;51.994;4.472;2024-03-22T01:02:23;44.53;;;43.04;;
71174;SDS011;58876;51.994;4.472;2024-03-22T01:04:49;39.08;;;37.71;;
71174;SDS011;58876;51.994;4.472;2024-03-22T01:07:14;37.32;;;35.90;;
71174;SDS011;58876;51.994;4.472;2024-03-22T01:09:40;35.62;;;34.18;;
71174;SDS011;58876;51.994;4.472;2024-03-22T01:12:05;35.23;;;33.69;;
71174;SDS011;58876;51.994;4.472;2024-03-22T01:14:31;36.85;;;35.27;;
71174;SDS011;58876;51.994;4.472;2024-03-22T01:16:56;36.92;;;35.19;;
71174;SDS011;58876;51.994;4.472;2024-03-22T01:19:22;36.74;;;35.31;;
71174;SDS011;58876;51.994;4.472;2024-03-22T01:21:48;36.42;;;35.16;;
71174;SDS011;58876;51.994;4.472;2024-03-22T01:24:14;36.28;;;34.93;;
71174;SDS011;58876;51.994;4.472;2024-03-22T01:26:40;36.08;;;34.78;;
71174;SDS011;58876;51.994;4.472;2024-03-22T01:29:05;35.79;;;34.69;;
71174;SDS011;58876;51.994;4.472;2024-03-22T01:31:31;36.25;;;34.92;;
71174;SDS011;58876;51.994;4.472;2024-03-22T01:33:56;35.37;;;34.25;;
71174;SDS011;58876;51.994;4.472;2024-03-22T01:36:21;34.07;;;33.00;;
71174;SDS011;58876;51.994;4.472;2024-03-22T01:38:47;34.34;;;33.42;;
71174;SDS011;58876;51.994;4.472;2024-03-22T01:41:12;34.41;;;33.39;;
71174;SDS011;58876;51.994;4.472;2024-03-22T01:43:38;34.16;;;33.14;;
71174;SDS011;58876;51.994;4.472;2024-03-22T01:46:04;34.67;;;33.59;;
71174;SDS011;58876;51.994;4.472;2024-03-22T01:48:29;33.01;;;32.28;;
71174;SDS011;58876;51.994;4.472;2024-03-22T01:50:57;32.58;;;31.68;;
71174;SDS011;58876;51.994;4.472;2024-03-22T01:53:23;33.04;;;32.13;;
71174;SDS011;58876;51.994;4.472;2024-03-22T01:55:48;33.08;;;32.06;;
71174;SDS011;58876;51.994;4.472;2024-03-22T01:58:14;31.01;;;30.18;;
71174;SDS011;58876;51.994;4.472;2024-03-22T02:00:39;29.02;;;28.48;;
71174;SDS011;58876;51.994;4.472;2024-03-22T02:03:05;28.60;;;28.06;;
71174;SDS011;58876;51.994;4.472;2024-03-22T02:05:30;27.91;;;27.25;;
71174;SDS011;58876;51.994;4.472;2024-03-22T02:07:55;27.79;;;27.19;;
71174;SDS011;58876;51.994;4.472;2024-03-22T02:10:21;27.76;;;27.12;;
71174;SDS011;58876;51.994;4.472;2024-03-22T02:12:47;27.86;;;27.09;;
71174;SDS011;58876;51.994;4.472;2024-03-22T02:15:12;28.26;;;27.37;;
71174;SDS011;58876;51.994;4.472;2024-03-22T02:17:37;26.96;;;26.02;;
71174;SDS011;58876;51.994;4.472;2024-03-22T02:20:03;27.03;;;26.31;;
71174;SDS011;58876;51.994;4.472;2024-03-22T02:22:30;26.54;;;25.52;;
71174;SDS011;58876;51.994;4.472;2024-03-22T02:24:56;25.88;;;25.09;;
71174;SDS011;58876;51.994;4.472;2024-03-22T02:27:21;25.49;;;24.79;;
71174;SDS011;58876;51.994;4.472;2024-03-22T02:29:47;25.91;;;25.37;;
71174;SDS011;58876;51.994;4.472;2024-03-22T02:32:12;25.41;;;24.90;;
71174;SDS011;58876;51.994;4.472;2024-03-22T02:34:38;25.58;;;24.91;;
71174;SDS011;58876;51.994;4.472;2024-03-22T02:37:04;25.84;;;25.50;;
71174;SDS011;58876;51.994;4.472;2024-03-22T02:39:29;26.45;;;25.75;;
71174;SDS011;58876;51.994;4.472;2024-03-22T02:41:55;25.90;;;25.48;;
71174;SDS011;58876;51.994;4.472;2024-03-22T02:44:21;26.40;;;25.94;;
71174;SDS011;58876;51.994;4.472;2024-03-22T02:46:47;25.02;;;24.68;;
71174;SDS011;58876;51.994;4.472;2024-03-22T02:49:12;24.82;;;24.63;;
71174;SDS011;58876;51.994;4.472;2024-03-22T02:51:38;24.78;;;24.30;;
71174;SDS011;58876;51.994;4.472;2024-03-22T02:54:04;24.56;;;24.38;;
71174;SDS011;58876;51.994;4.472;2024-03-22T02:56:29;24.64;;;24.22;;
71174;SDS011;58876;51.994;4.472;2024-03-22T02:58:55;24.87;;;24.45;;
71174;SDS011;58876;51.994;4.472;2024-03-22T03:01:20;25.16;;;24.71;;
71174;SDS011;58876;51.994;4.472;2024-03-22T03:03:46;25.44;;;24.92;;
71174;SDS011;58876;51.994;4.472;2024-03-22T03:06:11;25.85;;;25.49;;
71174;SDS011;58876;51.994;4.472;2024-03-22T03:08:38;25.58;;;25.32;;
71174;SDS011;58876;51.994;4.472;2024-03-22T03:11:04;24.51;;;24.15;;
71174;SDS011;58876;51.994;4.472;2024-03-22T03:13:30;24.75;;;24.34;;
71174;SDS011;58876;51.994;4.472;2024-03-22T03:15:56;24.47;;;24.10;;
71174;SDS011;58876;51.994;4.472;2024-03-22T03:18:22;23.64;;;23.28;;
71174;SDS011;58876;51.994;4.472;2024-03-22T03:20:47;22.30;;;22.19;;
71174;SDS011;58876;51.994;4.472;2024-03-22T03:23:13;22.02;;;21.96;;
71174;SDS011;58876;51.994;4.472;2024-03-22T03:25:38;21.08;;;20.93;;
71174;SDS011;58876;51.994;4.472;2024-03-22T03:28:03;20.58;;;20.46;;
71174;SDS011;58876;51.994;4.472;2024-03-22T03:30:29;20.46;;;20.31;;
71174;SDS011;58876;51.994;4.472;2024-03-22T03:32:54;18.93;;;18.74;;
71174;SDS011;58876;51.994;4.472;2024-03-22T03:35:20;19.23;;;18.99;;
71174;SDS011;58876;51.994;4.472;2024-03-22T03:37:45;19.33;;;19.12;;
71174;SDS011;58876;51.994;4.472;2024-03-22T03:40:11;19.01;;;18.93;;
71174;SDS011;58876;51.994;4.472;2024-03-22T03:42:36;19.24;;;19.13;;
71174;SDS011;58876;51.994;4.472;2024-03-22T03:45:02;19.21;;;18.93;;
71174;SDS011;58876;51.994;4.472;2024-03-22T03:47:27;19.31;;;18.92;;
71174;SDS011;58876;51.994;4.472;2024-03-22T03:49:53;17.37;;;17.28;;
71174;SDS011;58876;51.994;4.472;2024-03-22T03:52:18;16.70;;;16.57;;
71174;SDS011;58876;51.994;4.472;2024-03-22T03:54:44;15.95;;;15.91;;
71174;SDS011;58876;51.994;4.472;2024-03-22T03:57:09;15.49;;;15.38;;
71174;SDS011;58876;51.994;4.472;2024-03-22T03:59:34;16.06;;;15.99;;
71174;SDS011;58876;51.994;4.472;2024-03-22T04:02:00;15.98;;;15.84;;
71174;SDS011;58876;51.994;4.472;2024-03-22T04:04:26;17.28;;;17.14;;
71174;SDS011;58876;51.994;4.472;2024-03-22T04:06:51;16.39;;;16.21;;
71174;SDS011;58876;51.994;4.472;2024-03-22T04:09:17;16.97;;;16.90;;
71174;SDS011;58876;51.994;4.472;2024-03-22T04:11:42;17.54;;;17.42;;
71174;SDS011;58876;51.994;4.472;2024-03-22T04:14:09;17.80;;;17.67;;
71174;SDS011;58876;51.994;4.472;2024-03-22T04:16:34;18.30;;;18.06;;
71174;SDS011;58876;51.994;4.472;2024-03-22T04:19:00;19.73;;;19.46;;
71174;SDS011;58876;51.994;4.472;2024-03-22T04:21:25;20.38;;;20.03;;
71174;SDS011;58876;51.994;4.472;2024-03-22T04:23:51;20.53;;;20.09;;
71174;SDS011;58876;51.994;4.472;2024-03-22T04:26:16;20.16;;;19.94;;
71174;SDS011;58876;51.994;4.472;2024-03-22T04:28:42;20.64;;;20.41;;
71174;SDS011;58876;51.994;4.472;2024-03-22T04:31:08;20.76;;;20.51;;
71174;SDS011;58876;51.994;4.472;2024-03-22T04:33:34;20.91;;;20.66;;
71174;SDS011;58876;51.994;4.472;2024-03-22T04:36:01;20.42;;;20.19;;
71174;SDS011;58876;51.994;4.472;2024-03-22T04:38:28;20.11;;;19.75;;
71174;SDS011;58876;51.994;4.472;2024-03-22T04:40:54;20.04;;;19.79;;
71174;SDS011;58876;51.994;4.472;2024-03-22T04:43:20;19.80;;;19.56;;
71174;SDS011;58876;51.994;4.472;2024-03-22T04:45:46;19.44;;;19.32;;
71174;SDS011;58876;51.994;4.472;2024-03-22T04:48:12;19.58;;;19.23;;
71174;SDS011;58876;51.994;4.472;2024-03-22T04:50:40;17.96;;;17.86;;
71174;SDS011;58876;51.994;4.472;2024-03-22T04:53:06;17.79;;;17.62;;
71174;SDS011;58876;51.994;4.472;2024-03-22T04:55:31;18.28;;;18.12;;
71174;SDS011;58876;51.994;4.472;2024-03-22T04:58:01;18.39;;;18.28;;
71174;SDS011;58876;51.994;4.472;2024-03-22T05:00:27;18.27;;;18.14;;
71174;SDS011;58876;51.994;4.472;2024-03-22T05:02:53;19.06;;;18.97;;
71174;SDS011;58876;51.994;4.472;2024-03-22T05:05:18;19.34;;;19.22;;
71174;SDS011;58876;51.994;4.472;2024-03-22T05:07:44;20.41;;;20.25;;
71174;SDS011;58876;51.994;4.472;2024-03-22T05:10:10;20.78;;;20.57;;
71174;SDS011;58876;51.994;4.472;2024-03-22T05:12:36;21.28;;;21.01;;
71174;SDS011;58876;51.994;4.472;2024-03-22T05:15:02;21.93;;;21.52;;
71174;SDS011;58876;51.994;4.472;2024-03-22T05:17:28;21.61;;;21.31;;
71174;SDS011;58876;51.994;4.472;2024-03-22T05:19:57;20.93;;;20.65;;
71174;SDS011;58876;51.994;4.472;2024-03-22T05:22:22;20.22;;;19.96;;
71174;SDS011;58876;51.994;4.472;2024-03-22T05:24:48;20.54;;;20.19;;
71174;SDS011;58876;51.994;4.472;2024-03-22T05:27:13;19.95;;;19.64;;
71174;SDS011;58876;51.994;4.472;2024-03-22T05:29:39;19.41;;;19.04;;
71174;SDS011;58876;51.994;4.472;2024-03-22T05:32:04;18.99;;;18.83;;
71174;SDS011;58876;51.994;4.472;2024-03-22T05:34:30;19.68;;;19.50;;
71174;SDS011;58876;51.994;4.472;2024-03-22T05:36:57;19.56;;;19.35;;
71174;SDS011;58876;51.994;4.472;2024-03-22T05:39:22;20.11;;;19.84;;
71174;SDS011;58876;51.994;4.472;2024-03-22T05:41:48;19.84;;;19.67;;
71174;SDS011;58876;51.994;4.472;2024-03-22T05:44:13;20.27;;;20.09;;
71174;SDS011;58876;51.994;4.472;2024-03-22T05:46:39;20.68;;;20.48;;
71174;SDS011;58876;51.994;4.472;2024-03-22T05:49:04;21.38;;;21.11;;
71174;SDS011;58876;51.994;4.472;2024-03-22T05:51:29;21.50;;;21.25;;
71174;SDS011;58876;51.994;4.472;2024-03-22T05:53:56;22.47;;;22.15;;
71174;SDS011;58876;51.994;4.472;2024-03-22T05:56:22;22.34;;;21.98;;
71174;SDS011;58876;51.994;4.472;2024-03-22T05:58:47;22.12;;;21.87;;
71174;SDS011;58876;51.994;4.472;2024-03-22T06:01:13;22.36;;;22.07;;
71174;SDS011;58876;51.994;4.472;2024-03-22T06:03:38;22.61;;;22.32;;
71174;SDS011;58876;51.994;4.472;2024-03-22T06:06:04;21.96;;;21.73;;
71174;SDS011;58876;51.994;4.472;2024-03-22T06:08:30;22.09;;;21.83;;
71174;SDS011;58876;51.994;4.472;2024-03-22T06:11:00;21.82;;;21.39;;
71174;SDS011;58876;51.994;4.472;2024-03-22T06:13:26;21.91;;;21.69;;
71174;SDS011;58876;51.994;4.472;2024-03-22T06:15:51;21.95;;;21.65;;
71174;SDS011;58876;51.994;4.472;2024-03-22T06:18:17;21.44;;;21.14;;
71174;SDS011;58876;51.994;4.472;2024-03-22T06:20:42;21.48;;;21.18;;
71174;SDS011;58876;51.994;4.472;2024-03-22T06:23:09;20.96;;;20.73;;
71174;SDS011;58876;51.994;4.472;2024-03-22T06:25:35;20.80;;;20.45;;
71174;SDS011;58876;51.994;4.472;2024-03-22T06:28:01;21.45;;;20.90;;
71174;SDS011;58876;51.994;4.472;2024-03-22T06:30:27;21.00;;;20.43;;
71174;SDS011;58876;51.994;4.472;2024-03-22T06:32:53;21.29;;;20.86;;
71174;SDS011;58876;51.994;4.472;2024-03-22T06:35:20;21.32;;;20.89;;
71174;SDS011;58876;51.994;4.472;2024-03-22T06:37:45;19.77;;;19.47;;
71174;SDS011;58876;51.994;4.472;2024-03-22T06:40:11;19.77;;;19.46;;
71174;SDS011;58876;51.994;4.472;2024-03-22T06:42:37;20.46;;;20.03;;
71174;SDS011;58876;51.994;4.472;2024-03-22T06:45:03;20.28;;;20.07;;
71174;SDS011;58876;51.994;4.472;2024-03-22T06:47:29;20.03;;;19.60;;
71174;SDS011;58876;51.994;4.472;2024-03-22T06:49:54;19.62;;;19.29;;
71174;SDS011;58876;51.994;4.472;2024-03-22T06:52:19;19.70;;;19.31;;
71174;SDS011;58876;51.994;4.472;2024-03-22T06:54:45;19.25;;;18.92;;
71174;SDS011;58876;51.994;4.472;2024-03-22T06:57:11;17.91;;;17.71;;
71174;SDS011;58876;51.994;4.472;2024-03-22T06:59:36;17.28;;;17.09;;
71174;SDS011;58876;51.994;4.472;2024-03-22T07:02:05;16.86;;;16.69;;
71174;SDS011;58876;51.994;4.472;2024-03-22T07:04:30;16.02;;;15.88;;
71174;SDS011;58876;51.994;4.472;2024-03-22T07:06:56;16.84;;;16.73;;
71174;SDS011;58876;51.994;4.472;2024-03-22T07:09:21;16.01;;;15.90;;
71174;SDS011;58876;51.994;4.472;2024-03-22T07:11:47;15.25;;;15.15;;
71174;SDS011;58876;51.994;4.472;2024-03-22T07:14:13;15.78;;;15.73;;
71174;SDS011;58876;51.994;4.472;2024-03-22T07:16:38;15.13;;;15.11;;
71174;SDS011;58876;51.994;4.472;2024-03-22T07:19:04;15.48;;;15.37;;
71174;SDS011;58876;51.994;4.472;2024-03-22T07:21:29;15.14;;;15.04;;
71174;SDS011;58876;51.994;4.472;2024-03-22T07:23:56;14.40;;;14.34;;
71174;SDS011;58876;51.994;4.472;2024-03-22T07:26:21;14.12;;;13.99;;
71174;SDS011;58876;51.994;4.472;2024-03-22T07:28:46;13.69;;;13.61;;
71174;SDS011;58876;51.994;4.472;2024-03-22T07:31:12;13.63;;;13.56;;
71174;SDS011;58876;51.994;4.472;2024-03-22T07:33:37;14.09;;;13.91;;
71174;SDS011;58876;51.994;4.472;2024-03-22T07:36:04;13.82;;;13.66;;
71174;SDS011;58876;51.994;4.472;2024-03-22T07:38:30;13.58;;;13.37;;
71174;SDS011;58876;51.994;4.472;2024-03-22T07:40:55;13.02;;;12.85;;
71174;SDS011;58876;51.994;4.472;2024-03-22T07:43:21;13.55;;;13.41;;
71174;SDS011;58876;51.994;4.472;2024-03-22T07:45:46;12.75;;;12.66;;
71174;SDS011;58876;51.994;4.472;2024-03-22T07:48:12;13.11;;;12.84;;
71174;SDS011;58876;51.994;4.472;2024-03-22T07:50:37;12.71;;;12.56;;
71174;SDS011;58876;51.994;4.472;2024-03-22T07:53:03;13.17;;;12.92;;
71174;SDS011;58876;51.994;4.472;2024-03-22T07:55:28;12.86;;;12.54;;
71174;SDS011;58876;51.994;4.472;2024-03-22T07:57:54;12.35;;;12.11;;
71174;SDS011;58876;51.994;4.472;2024-03-22T08:00:19;12.24;;;12.08;;
71174;SDS011;58876;51.994;4.472;2024-03-22T08:02:45;11.90;;;11.69;;
71174;SDS011;58876;51.994;4.472;2024-03-22T08:05:10;12.73;;;12.52;;
71174;SDS011;58876;51.994;4.472;2024-03-22T08:07:36;12.60;;;12.31;;
71174;SDS011;58876;51.994;4.472;2024-03-22T08:10:01;13.18;;;12.78;;
71174;SDS011;58876;51.994;4.472;2024-03-22T08:12:27;13.66;;;13.30;;
71174;SDS011;58876;51.994;4.472;2024-03-22T08:14:53;12.75;;;12.49;;
71174;SDS011;58876;51.994;4.472;2024-03-22T08:17:19;12.85;;;12.67;;
71174;SDS011;58876;51.994;4.472;2024-03-22T08:19:44;12.81;;;12.65;;
71174;SDS011;58876;51.994;4.472;2024-03-22T08:22:10;13.54;;;13.32;;
71174;SDS011;58876;51.994;4.472;2024-03-22T08:24:36;13.20;;;13.05;;
71174;SDS011;58876;51.994;4.472;2024-03-22T08:27:02;13.34;;;13.05;;
71174;SDS011;58876;51.994;4.472;2024-03-22T08:29:28;12.96;;;12.78;;
71174;SDS011;58876;51.994;4.472;2024-03-22T08:31:54;13.15;;;12.96;;
71174;SDS011;58876;51.994;4.472;2024-03-22T08:34:20;12.96;;;12.81;;
71174;SDS011;58876;51.994;4.472;2024-03-22T08:36:46;13.13;;;12.97;;
71174;SDS011;58876;51.994;4.472;2024-03-22T08:39:12;13.39;;;13.29;;
71174;SDS011;58876;51.994;4.472;2024-03-22T08:41:37;12.91;;;12.83;;
71174;SDS011;58876;51.994;4.472;2024-03-22T08:44:03;12.93;;;12.85;;
71174;SDS011;58876;51.994;4.472;2024-03-22T08:46:28;13.13;;;12.95;;
71174;SDS011;58876;51.994;4.472;2024-03-22T08:48:54;12.95;;;12.80;;
71174;SDS011;58876;51.994;4.472;2024-03-22T08:51:20;13.06;;;12.89;;
71174;SDS011;58876;51.994;4.472;2024-03-22T08:53:46;12.53;;;12.40;;
71174;SDS011;58876;51.994;4.472;2024-03-22T08:56:12;13.41;;;13.19;;
71174;SDS011;58876;51.994;4.472;2024-03-22T08:58:37;13.09;;;12.95;;
71174;SDS011;58876;51.994;4.472;2024-03-22T09:01:03;12.72;;;12.61;;
71174;SDS011;58876;51.994;4.472;2024-03-22T09:03:28;13.12;;;12.92;;
71174;SDS011;58876;51.994;4.472;2024-03-22T09:05:55;12.81;;;12.60;;
71174;SDS011;58876;51.994;4.472;2024-03-22T09:08:21;12.81;;;12.69;;
71174;SDS011;58876;51.994;4.472;2024-03-22T09:10:47;12.45;;;12.39;;
71174;SDS011;58876;51.994;4.472;2024-03-22T09:13:13;13.07;;;12.97;;
71174;SDS011;58876;51.994;4.472;2024-03-22T09:15:39;13.23;;;13.14;;
71174;SDS011;58876;51.994;4.472;2024-03-22T09:18:04;13.14;;;12.95;;
71174;SDS011;58876;51.994;4.472;2024-03-22T09:20:30;13.41;;;13.18;;
71174;SDS011;58876;51.994;4.472;2024-03-22T09:22:56;13.22;;;13.04;;
71174;SDS011;58876;51.994;4.472;2024-03-22T09:25:23;12.74;;;12.58;;
71174;SDS011;58876;51.994;4.472;2024-03-22T09:27:49;12.62;;;12.38;;
71174;SDS011;58876;51.994;4.472;2024-03-22T09:30:15;12.31;;;12.15;;
71174;SDS011;58876;51.994;4.472;2024-03-22T09:32:40;12.03;;;11.89;;
71174;SDS011;58876;51.994;4.472;2024-03-22T09:35:07;12.88;;;12.70;;
71174;SDS011;58876;51.994;4.472;2024-03-22T09:37:33;12.38;;;12.21;;
71174;SDS011;58876;51.994;4.472;2024-03-22T09:39:58;12.78;;;12.57;;
71174;SDS011;58876;51.994;4.472;2024-03-22T09:42:24;12.37;;;12.20;;
71174;SDS011;58876;51.994;4.472;2024-03-22T09:44:51;12.73;;;12.59;;
71174;SDS011;58876;51.994;4.472;2024-03-22T09:47:17;13.12;;;12.95;;
71174;SDS011;58876;51.994;4.472;2024-03-22T09:49:45;13.31;;;13.16;;
71174;SDS011;58876;51.994;4.472;2024-03-22T09:52:13;12.33;;;12.24;;
71174;SDS011;58876;51.994;4.472;2024-03-22T09:54:42;12.57;;;12.45;;
71174;SDS011;58876;51.994;4.472;2024-03-22T09:57:13;12.30;;;12.24;;
71174;SDS011;58876;51.994;4.472;2024-03-22T09:59:43;12.52;;;12.47;;
71174;SDS011;58876;51.994;4.472;2024-03-22T10:02:13;12.69;;;12.69;;
71174;SDS011;58876;51.994;4.472;2024-03-22T10:04:41;12.21;;;12.10;;
71174;SDS011;58876;51.994;4.472;2024-03-22T10:07:07;12.45;;;12.39;;
71174;SDS011;58876;51.994;4.472;2024-03-22T10:09:35;11.93;;;11.87;;
71174;SDS011;58876;51.994;4.472;2024-03-22T10:12:01;12.34;;;12.30;;
71174;SDS011;58876;51.994;4.472;2024-03-22T10:14:26;12.44;;;12.44;;
71174;SDS011;58876;51.994;4.472;2024-03-22T10:16:52;13.37;;;13.37;;
71174;SDS011;58876;51.994;4.472;2024-03-22T10:19:21;13.28;;;13.27;;
71174;SDS011;58876;51.994;4.472;2024-03-22T10:21:47;13.55;;;13.54;;
71174;SDS011;58876;51.994;4.472;2024-03-22T10:24:24;13.90;;;13.88;;
71174;SDS011;58876;51.994;4.472;2024-03-22T10:26:50;15.08;;;15.08;;
71174;SDS011;58876;51.994;4.472;2024-03-22T10:29:15;14.96;;;14.96;;
71174;SDS011;58876;51.994;4.472;2024-03-22T10:31:41;18.01;;;17.97;;
71174;SDS011;58876;51.994;4.472;2024-03-22T10:34:07;17.20;;;17.20;;
71174;SDS011;58876;51.994;4.472;2024-03-22T10:36:38;16.39;;;16.39;;
71174;SDS011;58876;51.994;4.472;2024-03-22T10:39:05;16.73;;;16.73;;
71174;SDS011;58876;51.994;4.472;2024-03-22T10:41:30;16.37;;;16.37;;
71174;SDS011;58876;51.994;4.472;2024-03-22T10:43:56;16.64;;;16.64;;
71174;SDS011;58876;51.994;4.472;2024-03-22T10:46:23;15.74;;;15.74;;
71174;SDS011;58876;51.994;4.472;2024-03-22T10:48:55;14.86;;;14.86;;
71174;SDS011;58876;51.994;4.472;2024-03-22T10:51:23;15.21;;;15.21;;
71174;SDS011;58876;51.994;4.472;2024-03-22T10:53:51;15.30;;;15.30;;
71174;SDS011;58876;51.994;4.472;2024-03-22T10:56:21;15.00;;;15.00;;
71174;SDS011;58876;51.994;4.472;2024-03-22T10:58:48;14.89;;;14.89;;
71174;SDS011;58876;51.994;4.472;2024-03-22T11:01:25;15.44;;;15.44;;
71174;SDS011;58876;51.994;4.472;2024-03-22T11:03:51;14.27;;;14.27;;
71174;SDS011;58876;51.994;4.472;2024-03-22T11:06:28;14.47;;;14.47;;
71174;SDS011;58876;51.994;4.472;2024-03-22T11:08:55;14.01;;;14.01;;
71174;SDS011;58876;51.994;4.472;2024-03-22T11:11:27;13.18;;;13.18;;
71174;SDS011;58876;51.994;4.472;2024-03-22T11:13:53;13.67;;;13.67;;
71174;SDS011;58876;51.994;4.472;2024-03-22T11:16:21;14.29;;;14.29;;
71174;SDS011;58876;51.994;4.472;2024-03-22T11:18:46;14.22;;;14.22;;
71174;SDS011;58876;51.994;4.472;2024-03-22T11:21:13;15.18;;;15.18;;
71174;SDS011;58876;51.994;4.472;2024-03-22T11:23:40;14.97;;;14.97;;
71174;SDS011;58876;51.994;4.472;2024-03-22T11:26:05;15.65;;;15.65;;
71174;SDS011;58876;51.994;4.472;2024-03-22T11:28:33;15.22;;;15.22;;
71174;SDS011;58876;51.994;4.472;2024-03-22T11:30:59;15.44;;;15.44;;
71174;SDS011;58876;51.994;4.472;2024-03-22T11:33:24;15.11;;;15.11;;
71174;SDS011;58876;51.994;4.472;2024-03-22T11:35:52;14.97;;;14.97;;
71174;SDS011;58876;51.994;4.472;2024-03-22T11:38:18;15.00;;;15.00;;
71174;SDS011;58876;51.994;4.472;2024-03-22T11:40:44;14.59;;;14.59;;
71174;SDS011;58876;51.994;4.472;2024-03-22T11:43:11;14.30;;;14.29;;
71174;SDS011;58876;51.994;4.472;2024-03-22T11:45:40;14.39;;;14.36;;
71174;SDS011;58876;51.994;4.472;2024-03-22T11:48:08;14.77;;;14.75;;
71174;SDS011;58876;51.994;4.472;2024-03-22T11:50:35;14.33;;;14.31;;
71174;SDS011;58876;51.994;4.472;2024-03-22T11:53:04;14.69;;;14.69;;
71174;SDS011;58876;51.994;4.472;2024-03-22T11:55:30;14.90;;;14.90;;
71174;SDS011;58876;51.994;4.472;2024-03-22T11:57:57;13.61;;;13.61;;
71174;SDS011;58876;51.994;4.472;2024-03-22T12:00:23;14.11;;;14.11;;
71174;SDS011;58876;51.994;4.472;2024-03-22T12:02:50;14.14;;;14.03;;
71174;SDS011;58876;51.994;4.472;2024-03-22T12:05:17;14.56;;;14.56;;
71174;SDS011;58876;51.994;4.472;2024-03-22T12:07:43;14.49;;;14.49;;
71174;SDS011;58876;51.994;4.472;2024-03-22T12:10:09;13.60;;;13.60;;
71174;SDS011;58876;51.994;4.472;2024-03-22T12:12:35;12.61;;;12.59;;
71174;SDS011;58876;51.994;4.472;2024-03-22T12:15:02;11.93;;;11.93;;
71174;SDS011;58876;51.994;4.472;2024-03-22T12:17:28;11.72;;;11.72;;
71174;SDS011;58876;51.994;4.472;2024-03-22T12:19:54;11.63;;;11.63;;
71174;SDS011;58876;51.994;4.472;2024-03-22T12:22:21;11.40;;;11.40;;
71174;SDS011;58876;51.994;4.472;2024-03-22T12:24:47;10.72;;;10.72;;
71174;SDS011;58876;51.994;4.472;2024-03-22T12:27:13;10.57;;;10.57;;
71174;SDS011;58876;51.994;4.472;2024-03-22T12:29:38;11.19;;;11.19;;
71174;SDS011;58876;51.994;4.472;2024-03-22T12:32:04;11.24;;;11.24;;
71174;SDS011;58876;51.994;4.472;2024-03-22T12:34:30;10.56;;;10.56;;
71174;SDS011;58876;51.994;4.472;2024-03-22T12:36:57;11.18;;;11.12;;
71174;SDS011;58876;51.994;4.472;2024-03-22T12:39:23;11.40;;;11.37;;
71174;SDS011;58876;51.994;4.472;2024-03-22T12:41:49;12.09;;;12.05;;
71174;SDS011;58876;51.994;4.472;2024-03-22T12:44:15;11.63;;;11.63;;
71174;SDS011;58876;51.994;4.472;2024-03-22T12:46:40;12.45;;;12.34;;
71174;SDS011;58876;51.994;4.472;2024-03-22T12:49:10;13.15;;;12.99;;
71174;SDS011;58876;51.994;4.472;2024-03-22T12:51:36;13.25;;;13.25;;
71174;SDS011;58876;51.994;4.472;2024-03-22T12:54:03;14.25;;;14.21;;
71174;SDS011;58876;51.994;4.472;2024-03-22T12:56:30;15.07;;;14.97;;
71174;SDS011;58876;51.994;4.472;2024-03-22T12:58:56;15.68;;;15.67;;
71174;SDS011;58876;51.994;4.472;2024-03-22T13:01:21;15.74;;;15.74;;
71174;SDS011;58876;51.994;4.472;2024-03-22T13:03:47;16.40;;;16.35;;
71174;SDS011;58876;51.994;4.472;2024-03-22T13:06:12;15.77;;;15.77;;
71174;SDS011;58876;51.994;4.472;2024-03-22T13:08:38;15.61;;;15.57;;
71174;SDS011;58876;51.994;4.472;2024-03-22T13:11:04;15.02;;;14.96;;
71174;SDS011;58876;51.994;4.472;2024-03-22T13:13:33;14.67;;;14.63;;
71174;SDS011;58876;51.994;4.472;2024-03-22T13:15:59;14.72;;;14.65;;
71174;SDS011;58876;51.994;4.472;2024-03-22T13:18:27;14.21;;;14.18;;
71174;SDS011;58876;51.994;4.472;2024-03-22T13:20:53;13.68;;;13.67;;
71174;SDS011;58876;51.994;4.472;2024-03-22T13:23:19;14.71;;;14.67;;
71174;SDS011;58876;51.994;4.472;2024-03-22T13:25:45;14.62;;;14.59;;
71174;SDS011;58876;51.994;4.472;2024-03-22T13:28:10;13.97;;;13.97;;
71174;SDS011;58876;51.994;4.472;2024-03-22T13:30:36;13.91;;;13.90;;
71174;SDS011;58876;51.994;4.472;2024-03-22T13:33:02;13.93;;;13.93;;
71174;SDS011;58876;51.994;4.472;2024-03-22T13:35:28;13.57;;;13.57;;
71174;SDS011;58876;51.994;4.472;2024-03-22T13:37:54;13.07;;;13.07;;
71174;SDS011;58876;51.994;4.472;2024-03-22T13:40:20;12.25;;;12.25;;
71174;SDS011;58876;51.994;4.472;2024-03-22T13:42:46;12.05;;;12.05;;
71174;SDS011;58876;51.994;4.472;2024-03-22T13:45:11;13.11;;;13.07;;
71174;SDS011;58876;51.994;4.472;2024-03-22T13:47:39;13.75;;;13.72;;
71174;SDS011;58876;51.994;4.472;2024-03-22T13:50:08;13.45;;;13.45;;
71174;SDS011;58876;51.994;4.472;2024-03-22T13:52:34;13.25;;;13.10;;
71174;SDS011;58876;51.994;4.472;2024-03-22T13:55:00;12.15;;;12.12;;
71174;SDS011;58876;51.994;4.472;2024-03-22T13:57:29;13.04;;;13.04;;
71174;SDS011;58876;51.994;4.472;2024-03-22T13:59:55;13.10;;;13.09;;
71174;SDS011;58876;51.994;4.472;2024-03-22T14:02:21;13.20;;;13.16;;
71174;SDS011;58876;51.994;4.472;2024-03-22T14:04:46;13.08;;;13.08;;
71174;SDS011;58876;51.994;4.472;2024-03-22T14:07:12;12.77;;;12.76;;
71174;SDS011;58876;51.994;4.472;2024-03-22T14:09:40;12.29;;;12.28;;
71174;SDS011;58876;51.994;4.472;2024-03-22T14:12:06;12.48;;;12.47;;
71174;SDS011;58876;51.994;4.472;2024-03-22T14:14:31;11.53;;;11.53;;